Time;durP1;ratioP1;P1;durP2;ratioP2;P2;SDS_P1;SDS_P2;PMS_P1;PMS_P2;Temp;Humidity;BMP_temperature;BMP_pressure;BME280_temperature;BME280_humidity;BME280_pressure;Samples;Min_cycle;Max_cycle;Signal;HPM_P1;HPM_P2
2024/02/21 00:02:05;;;;;;;;;;;;;;;-2.98;100.00;101528.14;109418;1251;59821;-53
2024/02/21 00:04:32;;;;;;;;;;;;;;;-3.00;100.00;101525.70;109376;1251;74212;-59
2024/02/21 00:07:00;;;;;;;;;;;;;;;-3.02;100.00;101520.15;109462;1251;64677;-54
2024/02/21 00:09:28;;;;;;;;;;;;;;;-3.04;100.00;101516.34;109413;1251;72754;-54
2024/02/21 00:11:55;;;;;;;;;;;;;;;-3.07;100.00;101516.11;109369;1251;60441;-54
2024/02/21 00:14:22;;;;;;;;;;;;;;;-3.10;100.00;101509.77;109435;1251;59702;-60
2024/02/21 00:16:50;;;;;;;;;;;;;;;-3.12;100.00;101508.30;109412;1251;74253;-57
2024/02/21 00:19:17;;;;;;;;;;;;;;;-3.14;100.00;101507.39;109465;1251;67411;-54
2024/02/21 00:21:45;;;;;;;;;;;;;;;-3.17;100.00;101504.81;109486;1251;72738;-54
2024/02/21 00:24:13;;;;;;;;;;;;;;;-3.22;100.00;101501.95;109456;1251;59775;-55
2024/02/21 00:26:40;;;;;;;;;;;;;;;-3.27;100.00;101501.13;109408;1251;59877;-54
2024/02/21 00:29:08;;;;;;;;;;;;;;;-3.30;100.00;101496.66;109447;1251;74269;-55
2024/02/21 00:31:35;;;;;;;;;;;;;;;-3.31;100.00;101491.63;109454;1251;66968;-54
2024/02/21 00:34:03;;;;;;;;;;;;;;;-3.33;100.00;101488.96;109437;1251;72843;-55
2024/02/21 00:36:31;;;;;;;;;;;;;;;-3.34;100.00;101488.16;109369;1251;60100;-60
2024/02/21 00:38:58;;;;;;;;;;;;;;;-3.35;100.00;101488.54;109376;1253;60168;-54
2024/02/21 00:41:26;;;;;;;;;;;;;;;-3.37;100.00;101483.86;109485;1251;74092;-54
2024/02/21 00:43:53;;;;;;;;;;;;;;;-3.38;100.00;101478.97;109466;1251;67410;-54
2024/02/21 00:46:21;;;;;;;;;;;;;;;-3.38;100.00;101482.40;109436;1251;71774;-55
2024/02/21 00:48:50;;;;;;;;;;;;;;;-3.39;100.00;101478.33;109411;1251;60210;-60
2024/02/21 00:51:18;;;;;;;;;;;;;;;-3.38;100.00;101478.63;109475;1251;59686;-54
2024/02/21 00:53:45;;;;;;;;;;;;;;;-3.39;100.00;101477.33;109430;1254;75544;-53
2024/02/21 00:56:13;;;;;;;;;;;;;;;-3.41;100.00;101476.55;109454;1251;67568;-53
2024/02/21 00:58:40;;;;;;;;;;;;;;;-3.42;100.00;101472.84;109413;1251;70445;-58
2024/02/21 01:01:08;;;;;;;;;;;;;;;-3.44;100.00;101474.45;109372;1251;60057;-54
2024/02/21 01:03:35;;;;;;;;;;;;;;;-3.45;100.00;101472.30;109416;1251;59904;-53
2024/02/21 01:06:03;;;;;;;;;;;;;;;-3.48;100.00;101471.58;109429;1251;74289;-52
2024/02/21 01:08:30;;;;;;;;;;;;;;;-3.50;100.00;101470.79;109437;1251;65659;-53
2024/02/21 01:10:58;;;;;;;;;;;;;;;-3.50;100.00;101469.62;109336;1251;71457;-52
2024/02/21 01:13:26;;;;;;;;;;;;;;;-3.51;100.00;101470.02;109382;1251;59795;-53
2024/02/21 01:15:54;;;;;;;;;;;;;;;-3.50;100.00;101462.66;109445;1251;59926;-52
2024/02/21 01:18:21;;;;;;;;;;;;;;;-3.50;100.00;101464.02;109402;1251;73264;-53
2024/02/21 01:20:49;;;;;;;;;;;;;;;-3.49;100.00;101465.82;109398;1251;65499;-58
2024/02/21 01:23:16;;;;;;;;;;;;;;;-3.49;100.00;101462.60;109399;1253;71095;-52
2024/02/21 01:25:44;;;;;;;;;;;;;;;-3.51;100.00;101459.80;109357;1251;60042;-53
2024/02/21 01:28:12;;;;;;;;;;;;;;;-3.54;100.00;101455.16;109384;1251;59746;-52
2024/02/21 01:30:39;;;;;;;;;;;;;;;-3.57;100.00;101455.79;109350;1253;74197;-53
2024/02/21 01:33:07;;;;;;;;;;;;;;;-3.59;100.00;101454.71;109334;1251;65595;-53
2024/02/21 01:35:34;;;;;;;;;;;;;;;-3.60;100.00;101452.55;109398;1251;72746;-53
2024/02/21 01:38:02;;;;;;;;;;;;;;;-3.61;100.00;101452.08;109402;1251;60474;-54
2024/02/21 01:40:29;;;;;;;;;;;;;;;-3.63;100.00;101451.11;109417;1251;59878;-53
2024/02/21 01:42:57;;;;;;;;;;;;;;;-3.63;100.00;101451.66;109478;1251;75541;-54
2024/02/21 01:45:24;;;;;;;;;;;;;;;-3.64;100.00;101453.03;109400;1250;66768;-53
2024/02/21 01:47:52;;;;;;;;;;;;;;;-3.63;100.00;101452.34;109412;1251;72725;-53
2024/02/21 01:50:20;;;;;;;;;;;;;;;-3.62;100.00;101450.61;109432;1251;60063;-53
2024/02/21 01:52:48;;;;;;;;;;;;;;;-3.63;100.00;101455.72;109421;1251;59726;-52
2024/02/21 01:55:15;;;;;;;;;;;;;;;-3.63;100.00;101457.45;109412;1251;74254;-56
2024/02/21 01:57:45;;;;;;;;;;;;;;;-3.64;100.00;101456.11;109443;1251;67137;-53
2024/02/21 02:00:13;;;;;;;;;;;;;;;-3.63;100.00;101460.14;109183;1251;72870;-53
2024/02/21 02:02:40;;;;;;;;;;;;;;;-3.62;100.00;101463.69;109398;1251;59837;-53
2024/02/21 02:05:08;;;;;;;;;;;;;;;-3.61;100.00;101465.83;109375;1251;59918;-53
2024/02/21 02:07:35;;;;;;;;;;;;;;;-3.57;100.00;101462.40;109459;1251;75528;-53
2024/02/21 02:10:03;;;;;;;;;;;;;;;-3.52;100.00;101459.02;109426;1251;65890;-52
2024/02/21 02:12:31;;;;;;;;;;;;;;;-3.50;100.00;101455.02;109406;1251;72758;-53
2024/02/21 02:14:59;;;;;;;;;;;;;;;-3.50;100.00;101457.53;109443;1251;59820;-52
2024/02/21 02:17:26;;;;;;;;;;;;;;;-3.49;100.00;101456.13;109412;1251;59743;-54
2024/02/21 02:19:54;;;;;;;;;;;;;;;-3.49;100.00;101454.27;109404;1251;75483;-53
2024/02/21 02:22:22;;;;;;;;;;;;;;;-3.51;100.00;101455.08;109415;1251;65831;-53
2024/02/21 02:24:50;;;;;;;;;;;;;;;-3.54;100.00;101460.08;109451;1251;72190;-52
2024/02/21 02:27:17;;;;;;;;;;;;;;;-3.54;100.00;101458.76;109382;1251;60460;-56
2024/02/21 02:29:45;;;;;;;;;;;;;;;-3.56;100.00;101455.59;109409;1251;59767;-53
2024/02/21 02:32:12;;;;;;;;;;;;;;;-3.55;100.00;101458.95;109450;1251;74244;-53
2024/02/21 02:34:40;;;;;;;;;;;;;;;-3.56;100.00;101458.82;109439;1251;67609;-53
2024/02/21 02:37:07;;;;;;;;;;;;;;;-3.58;100.00;101460.63;109473;1251;71442;-52
2024/02/21 02:39:35;;;;;;;;;;;;;;;-3.59;100.00;101464.03;109413;1251;60809;-54
2024/02/21 02:42:02;;;;;;;;;;;;;;;-3.59;100.00;101461.15;109465;1251;59773;-52
2024/02/21 02:44:30;;;;;;;;;;;;;;;-3.58;100.00;101461.77;109478;1251;74575;-52
2024/02/21 02:46:57;;;;;;;;;;;;;;;-3.57;100.00;101462.27;109408;1251;66769;-55
2024/02/21 02:49:25;;;;;;;;;;;;;;;-3.57;100.00;101462.75;109386;1251;72755;-53
2024/02/21 02:51:53;;;;;;;;;;;;;;;-3.56;100.00;101458.48;109390;1251;60634;-53
2024/02/21 02:54:20;;;;;;;;;;;;;;;-3.56;100.00;101456.11;109383;1251;59726;-53
2024/02/21 02:56:47;;;;;;;;;;;;;;;-3.53;100.00;101461.09;109392;1250;74215;-53
2024/02/21 02:59:15;;;;;;;;;;;;;;;-3.50;100.00;101462.65;109307;1251;65661;-53
2024/02/21 03:01:42;;;;;;;;;;;;;;;-3.48;100.00;101460.18;109393;1251;72681;-56
2024/02/21 03:04:10;;;;;;;;;;;;;;;-3.46;100.00;101461.44;109412;1251;59867;-54
2024/02/21 03:06:37;;;;;;;;;;;;;;;-3.45;100.00;101458.35;109411;1251;59720;-53
2024/02/21 03:09:08;;;;;;;;;;;;;;;-3.45;100.00;101460.40;109436;1251;75475;-53
2024/02/21 03:11:37;;;;;;;;;;;;;;;-3.45;100.00;101460.06;109442;1251;65987;-53
2024/02/21 03:14:05;;;;;;;;;;;;;;;-3.45;100.00;101459.55;109373;1251;71409;-54
2024/02/21 03:16:32;;;;;;;;;;;;;;;-3.44;100.00;101457.98;109396;1251;60412;-53
2024/02/21 03:19:00;;;;;;;;;;;;;;;-3.46;100.00;101459.24;109318;1251;59696;-53
2024/02/21 03:21:27;;;;;;;;;;;;;;;-3.48;100.00;101456.80;109419;1251;75713;-54
2024/02/21 03:23:55;;;;;;;;;;;;;;;-3.48;100.00;101459.34;109345;1251;66249;-56
2024/02/21 03:26:23;;;;;;;;;;;;;;;-3.46;100.00;101459.41;109401;1251;72820;-53
2024/02/21 03:28:50;;;;;;;;;;;;;;;-3.44;100.00;101457.63;109351;1251;59789;-54
2024/02/21 03:31:18;;;;;;;;;;;;;;;-3.43;100.00;101454.05;109394;1251;60019;-54
2024/02/21 03:33:45;;;;;;;;;;;;;;;-3.43;100.00;101459.62;109342;1251;74281;-54
2024/02/21 03:36:14;;;;;;;;;;;;;;;-3.44;100.00;101457.97;109375;1251;66068;-53
2024/02/21 03:38:41;;;;;;;;;;;;;;;-3.45;100.00;101452.91;109390;1251;73125;-53
2024/02/21 03:41:09;;;;;;;;;;;;;;;-3.46;100.00;101450.77;109358;1251;59855;-53
2024/02/21 03:43:39;;;;;;;;;;;;;;;-3.50;100.00;101451.91;109471;1251;59939;-54
2024/02/21 03:46:07;;;;;;;;;;;;;;;-3.52;100.00;101450.52;109352;1251;75420;-53
2024/02/21 03:48:35;;;;;;;;;;;;;;;-3.54;100.00;101447.72;109381;1251;66096;-54
2024/02/21 03:51:03;;;;;;;;;;;;;;;-3.57;100.00;101449.52;109415;1251;72816;-53
2024/02/21 03:53:30;;;;;;;;;;;;;;;-3.59;100.00;101449.62;109382;1253;59771;-54
2024/02/21 03:56:02;;;;;;;;;;;;;;;-3.60;100.00;101450.84;109391;1251;59825;-54
2024/02/21 03:58:30;;;;;;;;;;;;;;;-3.62;100.00;101457.86;109460;1251;74259;-53
2024/02/21 04:00:59;;;;;;;;;;;;;;;-3.62;100.00;101458.24;109417;1251;66086;-53
2024/02/21 04:03:27;;;;;;;;;;;;;;;-3.63;100.00;101462.86;109374;1251;71259;-53
2024/02/21 04:05:55;;;;;;;;;;;;;;;-3.65;100.00;101465.47;109376;1251;60233;-60
2024/02/21 04:08:22;;;;;;;;;;;;;;;-3.67;100.00;101463.85;109361;1251;60296;-53
2024/02/21 04:10:50;;;;;;;;;;;;;;;-3.66;100.00;101466.03;109475;1251;74271;-53
2024/02/21 04:13:17;;;;;;;;;;;;;;;-3.64;100.00;101466.46;109403;1251;65493;-53
2024/02/21 04:15:45;;;;;;;;;;;;;;;-3.62;100.00;101465.52;109372;1251;71229;-53
2024/02/21 04:18:12;;;;;;;;;;;;;;;-3.58;100.00;101465.38;109282;1251;59768;-60
2024/02/21 04:20:40;;;;;;;;;;;;;;;-3.54;100.00;101465.89;109441;1251;59693;-53
2024/02/21 04:23:07;;;;;;;;;;;;;;;-3.52;100.00;101468.52;109452;1252;74303;-53
2024/02/21 04:25:35;;;;;;;;;;;;;;;-3.49;100.00;101468.36;109423;1251;67533;-55
2024/02/21 04:28:03;;;;;;;;;;;;;;;-3.48;100.00;101469.88;109366;1251;71492;-54
2024/02/21 04:30:31;;;;;;;;;;;;;;;-3.48;100.00;101468.20;109350;1251;59790;-54
2024/02/21 04:32:58;;;;;;;;;;;;;;;-3.47;100.00;101470.68;109405;1251;59731;-53
2024/02/21 04:35:26;;;;;;;;;;;;;;;-3.46;100.00;101475.40;109400;1250;74303;-53
2024/02/21 04:37:53;;;;;;;;;;;;;;;-3.46;100.00;101475.38;109393;1251;67067;-53
2024/02/21 04:40:21;;;;;;;;;;;;;;;-3.44;100.00;101477.88;109361;1251;72754;-59
2024/02/21 04:42:48;;;;;;;;;;;;;;;-3.44;100.00;101482.10;109347;1251;60377;-54
2024/02/21 04:45:16;;;;;;;;;;;;;;;-3.42;100.00;101483.91;109424;1251;59787;-53
2024/02/21 04:47:44;;;;;;;;;;;;;;;-3.40;100.00;101486.05;109444;1251;75544;-54
2024/02/21 04:50:12;;;;;;;;;;;;;;;-3.41;100.00;101487.92;109420;1250;67063;-54
2024/02/21 04:52:40;;;;;;;;;;;;;;;-3.40;100.00;101489.77;109383;1251;71784;-56
2024/02/21 04:55:08;;;;;;;;;;;;;;;-3.36;100.00;101487.58;109402;1253;60147;-53
2024/02/21 04:57:35;;;;;;;;;;;;;;;-3.34;100.00;101487.15;109482;1251;59715;-54
2024/02/21 05:00:03;;;;;;;;;;;;;;;-3.31;100.00;101490.42;109452;1250;74269;-54
2024/02/21 05:02:31;;;;;;;;;;;;;;;-3.29;100.00;101493.88;109452;1250;67422;-53
2024/02/21 05:04:58;;;;;;;;;;;;;;;-3.26;100.00;101491.91;109438;1251;72249;-52
2024/02/21 05:07:26;;;;;;;;;;;;;;;-3.23;100.00;101490.25;109464;1250;59782;-53
2024/02/21 05:09:53;;;;;;;;;;;;;;;-3.18;100.00;101488.04;109451;1252;60259;-53
2024/02/21 05:12:21;;;;;;;;;;;;;;;-3.13;100.00;101486.45;109472;1250;75752;-57
2024/02/21 05:14:48;;;;;;;;;;;;;;;-3.08;100.00;101491.66;109374;1252;67459;-57
2024/02/21 05:17:16;;;;;;;;;;;;;;;-3.01;100.00;101492.73;109401;1251;72074;-56
2024/02/21 05:19:44;;;;;;;;;;;;;;;-2.96;100.00;101493.34;109504;1251;60006;-55
2024/02/21 05:22:11;;;;;;;;;;;;;;;-2.90;100.00;101490.05;109465;1251;59760;-54
2024/02/21 05:24:39;;;;;;;;;;;;;;;-2.87;100.00;101486.33;109467;1251;75513;-55
2024/02/21 05:27:07;;;;;;;;;;;;;;;-2.84;100.00;101477.56;109414;1251;65736;-56
2024/02/21 05:29:34;;;;;;;;;;;;;;;-2.82;100.00;101477.95;109398;1251;72771;-56
2024/02/21 05:32:02;;;;;;;;;;;;;;;-2.79;100.00;101474.42;109421;1251;60473;-52
2024/02/21 05:34:30;;;;;;;;;;;;;;;-2.75;100.00;101475.95;109439;1251;60310;-55
2024/02/21 05:36:59;;;;;;;;;;;;;;;-2.71;100.00;101479.52;109412;1251;74253;-56
2024/02/21 05:39:29;;;;;;;;;;;;;;;-2.66;100.00;101479.80;109382;1251;65691;-54
2024/02/21 05:41:57;;;;;;;;;;;;;;;-2.62;100.00;101476.42;109437;1251;72698;-56
2024/02/21 05:44:25;;;;;;;;;;;;;;;-2.62;100.00;101472.64;109448;1250;59783;-55
2024/02/21 05:46:53;;;;;;;;;;;;;;;-2.59;100.00;101471.47;109444;1251;60272;-53
2024/02/21 05:49:21;;;;;;;;;;;;;;;-2.54;100.00;101473.34;109389;1251;75554;-57
2024/02/21 05:51:48;;;;;;;;;;;;;;;-2.50;100.00;101473.45;109447;1252;67058;-54
2024/02/21 05:54:16;;;;;;;;;;;;;;;-2.44;100.00;101470.83;109383;1251;72841;-54
2024/02/21 05:56:44;;;;;;;;;;;;;;;-2.40;100.00;101473.05;109400;1251;59797;-56
2024/02/21 05:59:12;;;;;;;;;;;;;;;-2.37;100.00;101474.93;109476;1250;59860;-54
2024/02/21 06:01:39;;;;;;;;;;;;;;;-2.33;100.00;101470.32;109370;1251;75558;-54
2024/02/21 06:04:07;;;;;;;;;;;;;;;-2.27;100.00;101474.79;109486;1250;66973;-55
2024/02/21 06:06:34;;;;;;;;;;;;;;;-2.19;100.00;101472.23;109457;1251;72893;-55
2024/02/21 06:09:03;;;;;;;;;;;;;;;-2.13;100.00;101470.91;109478;1250;61910;-54
2024/02/21 06:11:30;;;;;;;;;;;;;;;-2.07;100.00;101471.00;109381;1250;60028;-60
2024/02/21 06:13:58;;;;;;;;;;;;;;;-2.04;100.00;101469.66;109495;1251;75536;-54
2024/02/21 06:16:25;;;;;;;;;;;;;;;-2.02;100.00;101464.59;109495;1250;66961;-54
2024/02/21 06:18:53;;;;;;;;;;;;;;;-1.96;100.00;101461.98;109409;1250;72716;-54
2024/02/21 06:21:20;;;;;;;;;;;;;;;-1.87;100.00;101464.92;109420;1251;59771;-60
2024/02/21 06:23:48;;;;;;;;;;;;;;;-1.76;100.00;101464.21;109459;1250;60346;-54
2024/02/21 06:26:15;;;;;;;;;;;;;;;-1.62;100.00;101461.85;109445;1251;75590;-55
2024/02/21 06:28:43;;;;;;;;;;;;;;;-1.49;100.00;101461.39;109498;1250;67429;-54
2024/02/21 06:31:10;;;;;;;;;;;;;;;-1.39;100.00;101458.14;109386;1251;71809;-55
2024/02/21 06:33:38;;;;;;;;;;;;;;;-1.32;100.00;101454.07;109396;1250;60121;-55
2024/02/21 06:36:06;;;;;;;;;;;;;;;-1.26;100.00;101448.13;109471;1250;60112;-55
2024/02/21 06:38:34;;;;;;;;;;;;;;;-1.20;100.00;101446.65;109421;1250;75566;-55
2024/02/21 06:41:02;;;;;;;;;;;;;;;-1.14;100.00;101446.51;109437;1250;67095;-55
2024/02/21 06:43:30;;;;;;;;;;;;;;;-1.07;100.00;101439.64;109410;1251;71390;-55
2024/02/21 06:45:57;;;;;;;;;;;;;;;-1.00;100.00;101440.45;109444;1251;60009;-55
2024/02/21 06:48:25;;;;;;;;;;;;;;;-0.91;100.00;101437.81;109493;1250;60135;-55
2024/02/21 06:50:52;;;;;;;;;;;;;;;-0.79;100.00;101440.73;109478;1250;74295;-54
2024/02/21 06:53:20;;;;;;;;;;;;;;;-0.65;100.00;101440.54;109500;1250;65657;-55
2024/02/21 06:55:47;;;;;;;;;;;;;;;-0.57;100.00;101436.16;109397;1251;72292;-55
2024/02/21 06:58:16;;;;;;;;;;;;;;;-0.49;100.00;101436.09;109434;1251;60290;-54
2024/02/21 07:00:44;;;;;;;;;;;;;;;-0.34;100.00;101436.27;109419;1250;60012;-55
2024/02/21 07:03:12;;;;;;;;;;;;;;;-0.08;100.00;101437.58;109493;1251;76559;-55
2024/02/21 07:05:39;;;;;;;;;;;;;;;0.21;100.00;101435.08;109454;1250;69497;-61
2024/02/21 07:08:07;;;;;;;;;;;;;;;0.48;100.00;101433.05;109476;1250;74845;-56
2024/02/21 07:10:35;;;;;;;;;;;;;;;0.69;100.00;101433.67;109450;1251;61289;-56
2024/02/21 07:13:03;;;;;;;;;;;;;;;0.95;100.00;101429.26;109416;1251;62529;-55
2024/02/21 07:15:30;;;;;;;;;;;;;;;1.25;100.00;101428.44;109447;1250;75587;-56
2024/02/21 07:17:58;;;;;;;;;;;;;;;1.55;100.00;101429.34;109398;1251;70355;-54
2024/02/21 07:20:26;;;;;;;;;;;;;;;1.87;100.00;101427.52;109398;1252;71431;-54
2024/02/21 07:22:54;;;;;;;;;;;;;;;2.16;100.00;101428.87;109441;1251;59840;-54
2024/02/21 07:25:22;;;;;;;;;;;;;;;2.28;100.00;101420.01;109462;1250;59719;-56
2024/02/21 07:27:49;;;;;;;;;;;;;;;2.37;100.00;101419.41;109441;1251;73484;-59
2024/02/21 07:30:17;;;;;;;;;;;;;;;2.50;100.00;101413.30;109451;1251;69209;-56
2024/02/21 07:32:44;;;;;;;;;;;;;;;2.61;100.00;101415.08;109423;1251;74230;-55
2024/02/21 07:35:12;;;;;;;;;;;;;;;2.60;100.00;101413.80;109390;1251;60336;-55
2024/02/21 07:37:40;;;;;;;;;;;;;;;2.65;100.00;101412.25;109439;1251;62004;-55
2024/02/21 07:40:14;;;;;;;;;;;;;;;2.86;100.00;101410.67;109421;1251;76776;-56
2024/02/21 07:42:42;;;;;;;;;;;;;;;3.07;100.00;101409.17;109473;1251;66895;-55
2024/02/21 07:45:13;;;;;;;;;;;;;;;3.22;98.89;101406.46;109444;1251;74750;-55
2024/02/21 07:47:40;;;;;;;;;;;;;;;3.40;95.08;101410.16;109405;1251;59837;-55
2024/02/21 07:50:08;;;;;;;;;;;;;;;3.66;94.91;101405.92;109417;1251;59931;-56
2024/02/21 07:52:36;;;;;;;;;;;;;;;4.10;93.05;101405.08;109468;1251;77370;-56
2024/02/21 07:55:03;;;;;;;;;;;;;;;4.51;84.40;101400.86;109442;1251;68846;-56
2024/02/21 07:57:31;;;;;;;;;;;;;;;4.96;80.64;101393.09;109432;1251;73778;-56
2024/02/21 07:59:59;;;;;;;;;;;;;;;5.44;72.24;101387.07;109394;1251;61085;-57
2024/02/21 08:02:27;;;;;;;;;;;;;;;5.73;67.31;101388.61;109421;1251;60617;-56
2024/02/21 08:04:54;;;;;;;;;;;;;;;5.97;63.30;101391.67;109437;1251;76474;-56
2024/02/21 08:07:22;;;;;;;;;;;;;;;5.98;58.82;101386.95;109437;1251;69991;-55
2024/02/21 08:09:49;;;;;;;;;;;;;;;6.07;58.65;101388.27;109427;1251;74861;-56
2024/02/21 08:12:17;;;;;;;;;;;;;;;6.32;56.74;101384.86;109358;1251;60271;-60
2024/02/21 08:14:45;;;;;;;;;;;;;;;6.55;55.49;101385.31;109452;1251;63230;-56
2024/02/21 08:17:12;;;;;;;;;;;;;;;6.90;56.23;101388.40;109451;1251;76462;-55
2024/02/21 08:19:40;;;;;;;;;;;;;;;7.28;52.58;101385.64;109448;1251;67751;-56
2024/02/21 08:22:07;;;;;;;;;;;;;;;7.24;49.60;101383.23;109493;1251;74874;-55
2024/02/21 08:24:35;;;;;;;;;;;;;;;6.99;48.93;101384.50;109396;1252;60364;-56
2024/02/21 08:27:02;;;;;;;;;;;;;;;6.95;49.78;101382.66;109424;1251;61920;-56
2024/02/21 08:29:30;;;;;;;;;;;;;;;7.18;49.50;101387.39;109479;1250;75698;-56
2024/02/21 08:31:57;;;;;;;;;;;;;;;7.13;47.77;101388.51;109436;1250;67670;-56
2024/02/21 08:34:25;;;;;;;;;;;;;;;7.02;47.13;101392.66;109426;1251;73815;-59
2024/02/21 08:36:53;;;;;;;;;;;;;;;6.87;47.24;101388.48;109463;1251;61643;-56
2024/02/21 08:39:21;;;;;;;;;;;;;;;6.98;48.07;101387.54;109445;1251;62214;-56
2024/02/21 08:41:48;;;;;;;;;;;;;;;7.29;47.29;101384.66;109464;1250;76591;-55
2024/02/21 08:44:27;;;;;;;;;;;;;;;7.47;46.30;101388.08;109412;1251;69282;-60
2024/02/21 08:46:55;;;;;;;;;;;;;;;7.64;45.78;101389.26;109420;1253;76253;-56
2024/02/21 08:49:23;;;;;;;;;;;;;;;7.77;45.37;101385.77;109425;1251;63072;-56
2024/02/21 08:51:53;;;;;;;;;;;;;;;7.87;44.64;101387.83;109461;1251;61899;-56
2024/02/21 08:54:20;;;;;;;;;;;;;;;7.90;43.94;101385.54;109421;1250;78046;-60
2024/02/21 08:56:48;;;;;;;;;;;;;;;7.98;43.78;101382.20;109403;1251;67811;-56
2024/02/21 08:59:16;;;;;;;;;;;;;;;8.11;42.93;101383.15;109487;1251;73742;-55
2024/02/21 09:01:44;;;;;;;;;;;;;;;8.20;42.76;101378.29;109448;1250;62787;-56
2024/02/21 09:04:11;;;;;;;;;;;;;;;8.43;41.97;101380.17;109494;1251;61875;-56
2024/02/21 09:06:42;;;;;;;;;;;;;;;8.49;41.10;101382.56;109438;1251;77642;-58
2024/02/21 09:09:10;;;;;;;;;;;;;;;8.41;40.61;101382.41;109476;1251;66642;-55
2024/02/21 09:11:38;;;;;;;;;;;;;;;8.29;40.55;101377.84;109433;1250;73936;-55
2024/02/21 09:14:05;;;;;;;;;;;;;;;8.34;40.67;101371.09;109470;1251;62236;-56
2024/02/21 09:16:33;;;;;;;;;;;;;;;8.42;40.72;101367.77;109474;1251;61945;-55
2024/02/21 09:19:01;;;;;;;;;;;;;;;8.54;40.45;101367.17;109472;1251;77581;-56
2024/02/21 09:21:29;;;;;;;;;;;;;;;8.60;39.74;101366.65;109490;1251;68324;-56
2024/02/21 09:23:56;;;;;;;;;;;;;;;8.44;39.30;101364.80;109479;1251;76100;-56
2024/02/21 09:26:26;;;;;;;;;;;;;;;8.20;39.33;101361.98;109395;1252;62180;-55
2024/02/21 09:28:54;;;;;;;;;;;;;;;7.88;39.36;101358.82;109421;1250;63206;-61
2024/02/21 09:31:22;;;;;;;;;;;;;;;7.70;40.43;101354.89;109492;1251;77347;-55
2024/02/21 09:33:49;;;;;;;;;;;;;;;7.98;41.26;101353.80;109453;1251;68043;-55
2024/02/21 09:36:17;;;;;;;;;;;;;;;8.38;40.19;101350.66;109447;1250;74100;-56
2024/02/21 09:38:45;;;;;;;;;;;;;;;8.65;39.86;101345.04;109482;1252;62164;-55
2024/02/21 09:41:17;;;;;;;;;;;;;;;8.88;39.64;101340.83;109427;1250;61094;-56
2024/02/21 09:43:53;;;;;;;;;;;;;;;9.09;39.42;101330.80;109486;1250;76478;-55
2024/02/21 09:46:41;;;;;;;;;;;;;;;9.09;38.37;101332.98;109487;1250;68884;-56
2024/02/21 09:49:09;;;;;;;;;;;;;;;8.49;38.34;101336.67;109447;1251;74670;-57
2024/02/21 09:51:36;;;;;;;;;;;;;;;7.96;38.84;101335.28;109444;1251;61680;-55
2024/02/21 09:54:04;;;;;;;;;;;;;;;7.54;39.93;101335.55;109310;1251;60449;-55
2024/02/21 09:56:45;;;;;;;;;;;;;;;7.52;40.67;101336.42;109440;1250;78464;-56
2024/02/21 09:59:13;;;;;;;;;;;;;;;7.65;41.51;101330.31;109468;1251;66440;-55
2024/02/21 10:01:42;;;;;;;;;;;;;;;7.90;41.75;101325.09;109428;1251;74672;-56
2024/02/21 10:04:10;;;;;;;;;;;;;;;8.06;41.02;101315.98;109454;1250;60842;-55
2024/02/21 10:06:38;;;;;;;;;;;;;;;8.03;40.67;101311.95;109431;1251;62192;-55
2024/02/21 10:09:06;;;;;;;;;;;;;;;7.87;40.59;101308.77;109503;1250;78160;-55
2024/02/21 10:11:36;;;;;;;;;;;;;;;7.72;40.66;101313.45;109493;1251;69183;-55
2024/02/21 10:14:07;;;;;;;;;;;;;;;7.39;40.42;101313.38;109489;1251;76255;-57
2024/02/21 10:16:35;;;;;;;;;;;;;;;6.87;40.75;101312.30;109430;1250;60299;-59
2024/02/21 10:19:05;;;;;;;;;;;;;;;6.36;41.35;101311.61;109444;1251;62097;-56
2024/02/21 10:21:33;;;;;;;;;;;;;;;6.06;42.01;101309.71;109445;1250;77302;-56
2024/02/21 10:24:01;;;;;;;;;;;;;;;5.85;42.75;101305.98;109445;1251;68911;-56
2024/02/21 10:26:28;;;;;;;;;;;;;;;5.79;43.35;101306.20;109477;1251;72656;-56
2024/02/21 10:28:57;;;;;;;;;;;;;;;5.73;43.62;101297.22;109407;1251;60337;-60
2024/02/21 10:31:25;;;;;;;;;;;;;;;5.64;43.74;101293.94;109429;1251;61826;-55
2024/02/21 10:33:57;;;;;;;;;;;;;;;5.55;43.60;101285.50;109492;1250;77336;-55
2024/02/21 10:36:25;;;;;;;;;;;;;;;5.45;43.69;101289.11;109454;1251;67821;-56
2024/02/21 10:38:54;;;;;;;;;;;;;;;5.41;44.46;101288.24;109429;1251;74140;-62
2024/02/21 10:41:22;;;;;;;;;;;;;;;5.42;44.78;101291.11;109489;1253;60398;-56
2024/02/21 10:43:54;;;;;;;;;;;;;;;5.39;44.80;101290.66;109502;1251;60124;-55
2024/02/21 10:46:23;;;;;;;;;;;;;;;5.30;45.15;101292.20;109491;1251;76842;-55
2024/02/21 10:49:09;;;;;;;;;;;;;;;5.29;45.19;101289.02;109460;1250;68848;-56
2024/02/21 10:51:37;;;;;;;;;;;;;;;5.26;45.94;101289.27;109471;1251;74789;-55
2024/02/21 10:54:05;;;;;;;;;;;;;;;5.34;45.59;101287.08;109445;1251;61422;-55
2024/02/21 10:56:36;;;;;;;;;;;;;;;5.29;45.14;101282.00;109471;1252;62315;-55
2024/02/21 10:59:04;;;;;;;;;;;;;;;5.23;45.55;101281.06;109409;1254;76000;-56
2024/02/21 11:01:32;;;;;;;;;;;;;;;5.26;45.94;101279.29;109496;1250;70077;-55
2024/02/21 11:04:04;;;;;;;;;;;;;;;5.30;45.93;101272.70;109500;1257;76160;-56
2024/02/21 11:06:35;;;;;;;;;;;;;;;5.44;46.37;101264.34;109424;1251;60175;-56
2024/02/21 11:09:06;;;;;;;;;;;;;;;5.71;46.61;101265.08;109373;1253;61236;-56
2024/02/21 11:11:35;;;;;;;;;;;;;;;6.01;45.85;101258.82;109363;1253;77198;-55
2024/02/21 11:14:27;;;;;;;;;;;;;;;6.05;44.98;101255.55;109355;1253;67935;-56
2024/02/21 11:16:58;;;;;;;;;;;;;;;5.99;44.66;101258.65;109364;1253;75159;-55
2024/02/21 11:19:26;;;;;;;;;;;;;;;5.98;45.03;101259.08;109295;1252;62616;-55
2024/02/21 11:22:04;;;;;;;;;;;;;;;6.06;44.89;101256.83;102489;1291;599451;-55
2024/02/21 11:24:33;;;;;;;;;;;;;;;6.10;44.66;101252.90;104832;1272;62192;-55
2024/02/21 11:27:16;;;;;;;;;;;;;;;6.14;44.76;101245.53;104925;1266;63045;-55
2024/02/21 11:29:54;;;;;;;;;;;;;;;6.10;45.03;101242.59;105414;1256;74623;-56
2024/02/21 11:32:22;;;;;;;;;;;;;;;6.09;44.92;101236.94;105082;1261;68196;-59
2024/02/21 11:34:56;;;;;;;;;;;;;;;5.95;44.97;101233.94;105220;1260;208283;-56
2024/02/21 11:37:25;;;;;;;;;;;;;;;5.77;45.16;101233.85;105567;1259;61750;-56
2024/02/21 11:39:53;;;;;;;;;;;;;;;5.59;45.19;101238.64;105650;1256;62367;-57
2024/02/21 11:42:21;;;;;;;;;;;;;;;5.42;45.64;101238.82;105686;1255;75723;-56
2024/02/21 11:44:48;;;;;;;;;;;;;;;5.29;46.04;101244.57;105611;1259;70618;-56
2024/02/21 11:47:17;;;;;;;;;;;;;;;5.13;46.43;101247.55;105366;1261;75303;-58
2024/02/21 11:49:45;;;;;;;;;;;;;;;4.96;46.96;101246.34;105490;1257;60343;-56
2024/02/21 11:52:15;;;;;;;;;;;;;;;4.86;47.45;101243.16;105556;1262;61412;-56
2024/02/21 11:54:43;;;;;;;;;;;;;;;4.78;47.56;101239.50;105463;1256;75514;-57
2024/02/21 11:57:14;;;;;;;;;;;;;;;4.76;47.70;101231.73;105530;1256;68325;-56
2024/02/21 11:59:41;;;;;;;;;;;;;;;4.76;48.06;101232.77;105380;1262;75279;-57
2024/02/21 12:02:09;;;;;;;;;;;;;;;4.76;49.13;101228.83;105148;1256;61665;-57
2024/02/21 12:04:37;;;;;;;;;;;;;;;4.88;49.14;101227.71;105423;1261;61570;-55
2024/02/21 12:07:05;;;;;;;;;;;;;;;4.90;48.73;101227.90;105669;1253;75357;-56
2024/02/21 12:09:55;;;;;;;;;;;;;;;4.81;48.40;101223.98;105428;1256;69275;-55
2024/02/21 12:12:23;;;;;;;;;;;;;;;4.59;48.43;101226.58;105797;1258;74146;-55
2024/02/21 12:14:54;;;;;;;;;;;;;;;4.49;49.46;101230.43;105510;1253;63450;-55
2024/02/21 12:17:21;;;;;;;;;;;;;;;4.47;50.48;101226.48;105491;1257;62291;-54
2024/02/21 12:19:50;;;;;;;;;;;;;;;4.45;50.95;101224.38;105596;1259;76357;-55
2024/02/21 12:22:18;;;;;;;;;;;;;;;4.48;51.57;101220.36;105614;1258;70675;-55
2024/02/21 12:24:47;;;;;;;;;;;;;;;4.63;52.26;101223.33;105815;1254;74265;-55
2024/02/21 12:27:16;;;;;;;;;;;;;;;4.91;52.98;101220.27;105694;1260;61742;-55
2024/02/21 12:29:44;;;;;;;;;;;;;;;5.27;52.44;101215.77;105543;1253;62540;-54
2024/02/21 12:32:12;;;;;;;;;;;;;;;5.60;50.81;101221.17;105616;1258;75970;-55